Weather at Sjenica Airport [CLOSED]

Public forecast

Using degrees Celsius for public forecast. Weather courtesy of forecast.io.

Closest aviation weather report (METAR) to Sjenica Airport

Closest report is Morava Airport, 40.1 nm (74.3 km) NE. Retrieved 2022/07/04 06:00 UTC (17 minutes ago):

LYKV 040600Z VRB01KT CAVOK 25/20 Q1017 NOSIG

Closest aviation forecast (TAF) to Sjenica Airport

Closest forecast is Morava Airport, 40.1 nm (74.3 km) NE. Retrieved 2022/07/04 06:00 UTC (17 minutes ago):

TAF LYKV 040500Z 0406/0506 VRB02KT CAVOK TX35/0414Z TN18/0503Z PROB40 TEMPO 0413/0417 VRB15G25KT 5000 TSRA SCT030CB SCT040